Nearby METAR Reports

 

KSNK - Snyder/Winston, Texas, USA
Distance from station: SSE 25mi, 41km
Updated: Sun, 15-Sep-2019 7:15pm CDT
Partly cloudy
Partly cloudy
 Wind from SE
Wind: SE 8 mph , 13 km/h
Temperature: 88°F , 31°C
Dew Point: 54°F , 12°C
Humidity: 31%
Barometer: 30.07 inHg , 1018.3 hPa
Clouds: Partly cloudy
Visibility: 10 miles , 16 km
Cloud details: Partly cloudy 8500 ft
2019/09/16 00:15 KSNK 160015Z AUTO 13007KT 10SM SCT085 31/12 A3007 RMK AO2 T03110123
KSWW - Sweetwater, Texas, USA
Distance from station: SE 56mi, 90km
Updated: Sun, 15-Sep-2019 7:15pm CDT
Clear
Clear
 Wind from calm
Wind: Calm
Temperature: 86°F , 30°C
Dew Point: 54°F , 12°C
Humidity: 33%
Barometer: 30.09 inHg , 1019 hPa
Clouds: Clear
Visibility: 10 miles , 16 km
2019/09/16 00:15 KSWW 160015Z AUTO 00000KT 10SM CLR 30/12 A3009 RMK AO2 T03030116
 
KLBB - Lubbock, Texas, USA
Distance from station: NW 59mi, 94km
Updated: Sun, 15-Sep-2019 6:53pm CDT
Mostly cloudy
Mostly cloudy
 Wind from SSE
Wind: SSE 14 mph , 22 km/h
Temperature: 86°F , 30°C
Dew Point: 48°F , 9°C
Humidity: 27%
Barometer: 30.10 inHg , 1019.3 hPa
Clouds: Mostly cloudy
Visibility: 10 miles , 16 km
Cloud details: Few Clouds 8500 ft
Partly cloudy 9500 ft
Mostly cloudy 26000 ft
2019/09/15 23:53 KLBB 152353Z 16012KT 10SM FEW085 SCT095 BKN260 30/09 A3010 RMK AO2 SLP142 T03000094 10322 20294 56010
KPVW - Plainview, Texas, USA
Distance from station: NNW 85mi, 137km
Updated: Sun, 15-Sep-2019 7:15pm CDT
Clear
Clear
 Wind from S
Wind: S 7 mph , 11 km/h
Temperature: 81°F , 27°C
Dew Point: 50°F , 10°C
Humidity: 34%
Barometer: 30.11 inHg , 1019.6 hPa
Clouds: Clear
Visibility: 10 miles , 16 km
2019/09/16 00:15 KPVW 160015Z AUTO 17006KT 10SM CLR 27/10 A3011 RMK AO2 T02710103
 
KDYS - Dyess Afb/Abilen, Texas, USA
Distance from station: ESE 88mi, 141km
Updated: Sun, 15-Sep-2019 6:56pm CDT
Clear
Clear
 Wind from E
Wind: E 9 mph , 15 km/h
Temperature: 91°F , 33°C
Dew Point: 52°F , 11°C
Humidity: 26%
Barometer: 30.02 inHg , 1016.6 hPa
Clouds: Clear
Visibility: 10 miles , 16 km
2019/09/15 23:56 KDYS 152356Z AUTO 10008KT 10SM CLR 33/11 A3002 RMK AO2 SLP122 T03310110 10349 20323 57009 PNO FZRANO $
KGNC - Seminole, Texas, USA
Distance from station: WSW 89mi, 144km
Updated: Sun, 15-Sep-2019 7:15pm CDT
Clear
Clear
 Wind from SE
Wind: SE 6 mph , 9 km/h
Temperature: 84°F , 29°C
Dew Point: 45°F , 7°C
Humidity: 25%
Barometer: 30.13 inHg , 1020.3 hPa
Clouds: Clear
Visibility: 10 miles , 16 km
2019/09/16 00:15 KGNC 160015Z AUTO 14005KT 10SM CLR 29/07 A3013 RMK AO2 T02860073
 
KE11 - Andrews, Texas, USA
Distance from station: WSW 93mi, 149km
Updated: Sun, 15-Sep-2019 7:15pm CDT
Partly cloudy
Partly cloudy
 Wind from SE
Wind: SE 8 mph , 13 km/h
Temperature: 84°F , 29°C
Dew Point: 48°F , 9°C
Humidity: 29%
Barometer: 30.09 inHg , 1019 hPa
Clouds: Partly cloudy
Visibility: 10 miles , 16 km
Cloud details: Partly cloudy 10000 ft
2019/09/16 00:15 KE11 160015Z AUTO 14007KT 10SM SCT100 29/09 A3009 RMK AO2 T02930091
KABI - Abilene, Texas, USA
Distance from station: ESE 96mi, 154km
Updated: Sun, 15-Sep-2019 6:52pm CDT
Clear
Clear
 Wind from E
Wind: E 10 mph , 17 km/h
Temperature: 93°F , 34°C
Dew Point: 52°F , 11°C
Humidity: 24%
Barometer: 30.03 inHg , 1016.9 hPa
Clouds: Clear
Visibility: 10 miles , 16 km
2019/09/15 23:52 KABI 152352Z 10009KT 10SM CLR 34/11 A3003 RMK AO2 SLP142 T03390106 10356 20328 56007
 
KMAF - Midland, Texas, USA
Distance from station: SW 96mi, 154km
Updated: Sun, 15-Sep-2019 6:53pm CDT
Clear
Clear
 Wind from SE
Wind: SE 14 mph , 22 km/h
Temperature: 90°F , 32°C
Dew Point: 52°F , 11°C
Humidity: 27%
Barometer: 30.05 inHg , 1017.6 hPa
Clouds: Clear
Visibility: 10 miles , 16 km
2019/09/15 23:53 KMAF 152353Z 14012KT 10SM CLR 32/11 A3005 RMK AO2 SLP131 T03170111 10339 20311 56011
KCDS - Childress, Texas, USA
Distance from station: NNE 110mi, 177km
Updated: Sun, 15-Sep-2019 6:53pm CDT
Clear
Clear
 Wind from SE
Wind: SE 7 mph , 11 km/h
Temperature: 90°F , 32°C
Dew Point: 54°F , 12°C
Humidity: 29%
Barometer: 30.04 inHg , 1017.3 hPa
Clouds: Clear
Visibility: 10 miles , 16 km
2019/09/15 23:53 KCDS 152353Z AUTO 14006KT 10SM CLR 32/12 A3004 RMK AO2 SLP147 T03220122 10339 20317 56010
 
KSJT - San Angelo, Texas, USA
Distance from station: SSE 121mi, 194km
Updated: Sun, 15-Sep-2019 6:51pm CDT
Clear
Clear
 Wind from ESE
Wind: ESE 8 mph , 13 km/h
Temperature: 91°F , 33°C
Dew Point: 54°F , 12°C
Humidity: 28%
Barometer: 30.01 inHg , 1016.3 hPa
Clouds: Clear
Visibility: 10 miles , 16 km
2019/09/15 23:51 KSJT 152351Z 12007KT 10SM CLR 33/12 A3001 RMK AO2 SLP139 T03330117 10356 20322 56010
KHOB - Hobbs/Lea Co., New Mexico, USA
Distance from station: WSW 122mi, 196km
Updated: Sun, 15-Sep-2019 7:15pm CDT
Clear
Clear
 Wind from ESE
Wind: ESE 16 mph , 26 km/h
Temperature: 82°F , 28°C
Dew Point: 46°F , 8°C
Humidity: 28%
Barometer: 30.10 inHg , 1019.3 hPa
Clouds: Clear
Visibility: 10 miles , 16 km
2019/09/16 00:15 KHOB 160015Z AUTO 12014KT 10SM CLR 28/08 A3010 RMK AO2
 
KCOM - Coleman Muni, Texas, USA
Distance from station: SE 131mi, 212km
Updated: Sun, 15-Sep-2019 7:15pm CDT
Clear
Clear
 Wind from ESE
Wind: ESE 8 mph , 13 km/h
Temperature: 90°F , 32°C
Dew Point: 54°F , 12°C
Humidity: 29%
Barometer: 30.03 inHg , 1016.9 hPa
Clouds: Clear
Visibility: 10 miles , 16 km
2019/09/16 00:15 KCOM 160015Z AUTO 11007KT 10SM CLR 32/12 A3003 RMK AO2 T03220121
KBKD - Breckenridge, Texas, USA
Distance from station: E 134mi, 215km
Updated: Sun, 15-Sep-2019 7:15pm CDT
Clear
Clear
 
Temperature: 91°F , 33°C
Dew Point: 54°F , 12°C
Humidity: 28%
Barometer: 30.01 inHg , 1016.3 hPa
Clouds: Clear
Visibility: 7 miles , 11 km
2019/09/16 00:15 KBKD 160015Z AUTO 7SM CLR 33/12 A3001 RMK AO2 T03330121
 
KF05 - Vernon Wilbarger, Texas, USA
Distance from station: NE 137mi, 220km
Updated: Sun, 15-Sep-2019 7:15pm CDT
Clear
Clear
 Wind from SE
Wind: SE 9 mph , 15 km/h
Temperature: 93°F , 34°C
Dew Point: 59°F , 15°C
Humidity: 32%
Barometer: 30.02 inHg , 1016.6 hPa
Clouds: Clear
Visibility: 10 miles , 16 km
2019/09/16 00:15 KF05 160015Z AUTO 14008KT 10SM CLR 34/15 A3002 RMK AO1 T03390146